Time;durP1;ratioP1;P1;durP2;ratioP2;P2;SDS_P1;SDS_P2;PMS_P1;PMS_P2;Temp;Humidity;BMP_temperature;BMP_pressure;BME280_temperature;BME280_humidity;BME280_pressure;Samples;Min_cycle;Max_cycle;Signal;HPM_P1;HPM_P2
2021/01/17 00:01:04;;;;;;;3.28;2.85;;;;;;;-1.68;73.88;101149.53;4985922;28;20050;-63
2021/01/17 00:03:31;;;;;;;3.83;2.50;;;;;;;-1.40;74.27;101146.75;4985537;28;20057;-63
2021/01/17 00:05:58;;;;;;;5.35;3.53;;;;;;;-1.47;74.16;101147.91;4985384;28;20052;-62
2021/01/17 00:08:24;;;;;;;3.90;3.13;;;;;;;-1.05;72.15;101145.44;4985249;28;22552;-63
2021/01/17 00:10:51;;;;;;;4.45;3.08;;;;;;;-0.72;70.43;101140.41;4985111;28;20050;-63
2021/01/17 00:13:19;;;;;;;4.07;3.20;;;;;;;-0.94;70.53;101126.16;4985455;28;20153;-62
2021/01/17 00:15:46;;;;;;;5.32;3.13;;;;;;;-1.43;73.39;101137.38;4984876;28;20112;-62
2021/01/17 00:18:13;;;;;;;4.88;3.30;;;;;;;-1.57;74.81;101125.34;4984859;28;20101;-63
2021/01/17 00:20:46;;;;;;;5.28;3.05;;;;;;;-1.59;74.29;101124.31;4982856;28;20125;-59
2021/01/17 00:23:13;;;;;;;5.28;3.50;;;;;;;-1.78;74.80;101116.91;4985087;28;20046;-62
2021/01/17 00:25:40;;;;;;;3.97;3.30;;;;;;;-1.51;74.43;101120.78;4984995;28;20124;-62
2021/01/17 00:28:06;;;;;;;4.20;3.28;;;;;;;-1.60;74.77;101117.53;4984643;28;20050;-63
2021/01/17 00:30:33;;;;;;;5.45;3.55;;;;;;;-1.40;73.45;101114.09;4984964;28;20085;-60
2021/01/17 00:33:02;;;;;;;4.68;3.05;;;;;;;-1.45;74.66;101117.88;4984521;28;20054;-63
2021/01/17 00:35:31;;;;;;;4.70;3.28;;;;;;;-1.34;73.49;101109.56;4984659;28;20310;-63
2021/01/17 00:38:00;;;;;;;6.18;3.72;;;;;;;-1.64;75.03;101108.88;4983718;28;20046;-61
2021/01/17 00:40:28;;;;;;;4.50;3.53;;;;;;;-1.62;76.10;101106.47;4984762;28;20507;-62
2021/01/17 00:42:55;;;;;;;6.03;3.35;;;;;;;-1.50;75.14;101109.13;4985166;28;20409;-59
2021/01/17 00:45:25;;;;;;;4.97;3.53;;;;;;;-1.84;76.72;101106.41;4984608;28;20056;-58
2021/01/17 00:47:52;;;;;;;6.82;3.88;;;;;;;-2.06;77.21;101103.75;4984068;28;20552;-60
2021/01/17 00:50:20;;;;;;;6.75;4.13;;;;;;;-1.92;78.05;101104.88;4984282;28;20144;-57
2021/01/17 00:52:54;;;;;;;5.25;3.72;;;;;;;-1.99;78.04;101105.13;4983540;28;20501;-58
2021/01/17 00:55:20;;;;;;;5.75;3.40;;;;;;;-1.73;76.95;101108.13;4984144;28;20065;-58
2021/01/17 00:57:47;;;;;;;6.70;4.00;;;;;;;-1.62;76.37;101104.88;4983104;28;20366;-60
2021/01/17 01:00:16;;;;;;;7.15;4.72;;;;;;;-1.68;76.28;101101.84;4983911;28;20050;-61
2021/01/17 01:02:43;;;;;;;9.20;5.50;;;;;;;-1.83;77.09;101096.47;4983807;28;20400;-56
2021/01/17 01:05:13;;;;;;;8.68;5.85;;;;;;;-1.72;78.05;101099.84;4984105;28;20145;-58
2021/01/17 01:07:42;;;;;;;9.52;5.45;;;;;;;-1.72;77.41;101092.31;4983403;28;20509;-59
2021/01/17 01:10:10;;;;;;;9.60;5.95;;;;;;;-1.54;77.35;101092.91;4984291;28;20053;-59
2021/01/17 01:12:37;;;;;;;10.73;7.03;;;;;;;-1.87;77.94;101079.41;4984130;28;20050;-60
2021/01/17 01:15:05;;;;;;;9.93;6.07;;;;;;;-1.61;77.05;101084.03;4984518;28;20070;-60
2021/01/17 01:17:32;;;;;;;10.55;6.63;;;;;;;-1.90;77.59;101088.31;4984272;28;20050;-58
2021/01/17 01:19:58;;;;;;;9.80;6.07;;;;;;;-1.72;78.28;101087.28;4985131;28;20053;-58
2021/01/17 01:22:24;;;;;;;10.10;6.90;;;;;;;-2.00;77.22;101083.28;4983803;28;22568;-57
2021/01/17 01:24:51;;;;;;;10.77;7.00;;;;;;;-1.99;77.84;101082.53;4983925;28;20090;-59
2021/01/17 01:27:17;;;;;;;9.65;6.57;;;;;;;-1.85;78.45;101077.91;4983347;28;20054;-60
2021/01/17 01:29:44;;;;;;;10.90;6.55;;;;;;;-1.90;78.03;101073.25;4983382;28;20050;-60
2021/01/17 01:32:12;;;;;;;9.70;6.28;;;;;;;-1.93;77.73;101071.38;4982324;28;20062;-60
2021/01/17 01:34:39;;;;;;;10.48;6.40;;;;;;;-1.78;78.31;101065.84;4983302;28;20514;-60
2021/01/17 01:37:06;;;;;;;13.30;7.47;;;;;;;-1.79;77.07;101070.00;4983272;28;20081;-57
2021/01/17 01:39:33;;;;;;;11.23;6.10;;;;;;;-1.99;77.92;101065.84;4983574;28;20100;-59
2021/01/17 01:42:06;;;;;;;11.02;6.90;;;;;;;-2.03;78.64;101067.97;4983786;28;20054;-60
2021/01/17 01:44:33;;;;;;;11.25;6.32;;;;;;;-1.88;78.36;101065.09;4984024;28;20059;-59
2021/01/17 01:47:01;;;;;;;11.48;6.70;;;;;;;-2.02;79.70;101068.13;4984027;28;20050;-60
2021/01/17 01:49:27;;;;;;;10.48;6.40;;;;;;;-1.98;78.20;101062.59;4983525;28;20165;-60
2021/01/17 01:51:59;;;;;;;12.95;6.97;;;;;;;-2.09;79.28;101061.72;4983929;28;20117;-60
2021/01/17 01:54:26;;;;;;;13.15;7.93;;;;;;;-2.11;79.57;101055.72;4983350;28;20058;-60
2021/01/17 01:56:53;;;;;;;11.15;7.18;;;;;;;-2.11;79.15;101052.31;4983836;28;20050;-59
2021/01/17 01:59:20;;;;;;;16.55;9.00;;;;;;;-1.98;79.63;101050.06;4983839;28;20054;-65
2021/01/17 02:01:49;;;;;;;18.63;9.70;;;;;;;-2.00;79.01;101050.69;4983763;28;20141;-59
2021/01/17 02:04:16;;;;;;;21.80;11.10;;;;;;;-1.93;79.18;101053.81;4983451;28;20050;-60
2021/01/17 02:07:14;;;;;;;16.73;9.57;;;;;;;-2.05;78.87;101047.78;4983240;28;20050;-61
2021/01/17 02:09:42;;;;;;;13.27;8.38;;;;;;;-2.30;80.22;101042.41;4982140;28;20483;-58
2021/01/17 02:12:30;;;;;;;11.68;7.85;;;;;;;-2.01;78.33;101043.91;4983280;28;20062;-60
2021/01/17 02:15:07;;;;;;;13.00;7.63;;;;;;;-2.12;79.52;101043.06;4982090;28;20050;-60
2021/01/17 02:17:35;;;;;;;12.57;7.57;;;;;;;-2.05;80.20;101048.66;4982921;28;20410;-60
2021/01/17 02:20:06;;;;;;;12.60;7.22;;;;;;;-1.81;78.87;101044.75;4983443;28;20475;-57
2021/01/17 02:22:47;;;;;;;11.68;7.47;;;;;;;-1.78;78.38;101039.13;4982746;28;20046;-59
2021/01/17 02:25:15;;;;;;;12.93;7.93;;;;;;;-1.99;78.13;101040.75;4979520;28;20149;-55
2021/01/17 02:27:43;;;;;;;9.73;6.80;;;;;;;-1.87;79.33;101038.38;4982104;28;20117;-59
2021/01/17 02:30:13;;;;;;;12.50;7.32;;;;;;;-2.03;78.89;101037.88;4982772;28;20046;-56
2021/01/17 02:32:48;;;;;;;12.05;6.75;;;;;;;-2.06;79.44;101038.53;4981839;28;20475;-57
2021/01/17 02:35:16;;;;;;;8.88;6.93;;;;;;;-1.93;78.13;101030.38;4983266;28;20109;-58
2021/01/17 02:37:53;;;;;;;10.05;6.40;;;;;;;-2.15;79.47;101027.75;4967207;28;20064;-55
2021/01/17 02:40:45;;;;;;;10.70;7.07;;;;;;;-2.26;80.27;101028.50;4982913;28;20054;-57
2021/01/17 02:43:13;;;;;;;13.23;8.20;;;;;;;-2.41;80.64;101025.59;4978488;28;20112;-58
2021/01/17 02:45:40;;;;;;;11.63;7.22;;;;;;;-2.29;81.26;101035.78;4982668;28;20042;-58
2021/01/17 02:48:07;;;;;;;10.90;7.68;;;;;;;-2.21;80.45;101042.31;4982486;28;20487;-57
2021/01/17 02:50:34;;;;;;;9.75;7.00;;;;;;;-1.35;75.46;101035.84;4983117;28;20054;-59
2021/01/17 02:53:14;;;;;;;12.98;6.93;;;;;;;-1.70;76.83;101039.75;4982578;28;20054;-58
2021/01/17 02:55:41;;;;;;;11.63;7.20;;;;;;;-2.40;80.23;101040.78;4981797;28;20043;-55
2021/01/17 02:58:08;;;;;;;12.18;6.53;;;;;;;-1.90;79.77;101033.09;4982621;28;20165;-60
2021/01/17 03:00:38;;;;;;;11.20;6.68;;;;;;;-1.91;76.83;101041.38;4982856;28;20057;-59
2021/01/17 03:03:07;;;;;;;11.20;6.90;;;;;;;-2.34;79.97;101041.28;4978495;28;20132;-56
2021/01/17 03:05:35;;;;;;;10.75;7.07;;;;;;;-2.37;80.81;101035.13;4982723;28;20108;-59
2021/01/17 03:08:05;;;;;;;12.15;7.13;;;;;;;-1.62;77.56;101034.56;4982728;28;20047;-58
2021/01/17 03:10:32;;;;;;;11.93;7.22;;;;;;;-2.17;79.06;101029.22;4983306;28;20093;-60
2021/01/17 03:13:01;;;;;;;11.88;6.43;;;;;;;-2.08;79.14;101030.88;4982926;28;20453;-60
2021/01/17 03:15:34;;;;;;;10.15;6.25;;;;;;;-2.09;78.66;101030.72;4982378;28;20074;-60
2021/01/17 03:18:01;;;;;;;10.68;6.40;;;;;;;-2.00;78.59;101035.63;4981933;28;20145;-60
2021/01/17 03:20:28;;;;;;;10.65;6.65;;;;;;;-1.98;78.53;101034.13;4965856;28;20116;-59
2021/01/17 03:22:54;;;;;;;10.00;6.57;;;;;;;-1.88;77.91;101041.66;4982433;28;20046;-60
2021/01/17 03:25:21;;;;;;;11.15;6.55;;;;;;;-1.98;78.31;101042.53;4982752;28;20592;-58
2021/01/17 03:27:47;;;;;;;9.77;6.32;;;;;;;-2.06;78.52;101043.53;4982149;28;20058;-58
2021/01/17 03:30:15;;;;;;;11.32;6.97;;;;;;;-2.31;79.15;101044.06;4982443;28;20054;-58
2021/01/17 03:32:41;;;;;;;9.40;6.53;;;;;;;-2.09;79.68;101045.78;4981605;28;20077;-60
2021/01/17 03:35:09;;;;;;;10.27;6.32;;;;;;;-2.18;79.37;101050.94;4982003;28;20152;-61
2021/01/17 03:37:37;;;;;;;12.07;6.57;;;;;;;-2.21;79.31;101050.69;4981843;28;20050;-58
2021/01/17 03:40:04;;;;;;;10.27;6.25;;;;;;;-2.20;79.74;101047.44;4983009;28;20716;-59
2021/01/17 03:42:30;;;;;;;11.20;6.40;;;;;;;-1.62;77.87;101046.22;4982453;28;20518;-57
2021/01/17 03:44:56;;;;;;;9.05;6.13;;;;;;;-1.83;77.52;101048.78;4981528;28;20180;-60
2021/01/17 03:47:23;;;;;;;8.77;6.35;;;;;;;-2.35;80.09;101047.06;4982210;28;20788;-57
2021/01/17 03:49:49;;;;;;;9.20;6.65;;;;;;;-2.17;79.05;101049.28;4981713;28;20042;-61
2021/01/17 03:52:16;;;;;;;9.40;6.65;;;;;;;-2.02;78.40;101045.53;4981621;28;20451;-61
2021/01/17 03:54:42;;;;;;;10.73;6.63;;;;;;;-2.19;79.25;101045.78;4982237;28;20069;-61
2021/01/17 03:57:08;;;;;;;13.55;6.80;;;;;;;-2.12;78.57;101046.44;4985610;28;20058;-60
2021/01/17 03:59:35;;;;;;;10.63;6.60;;;;;;;-2.06;79.20;101038.53;4985862;28;20054;-57
2021/01/17 04:02:01;;;;;;;12.55;6.68;;;;;;;-2.00;78.75;101039.00;4985878;28;20050;-59
2021/01/17 04:04:28;;;;;;;10.60;6.78;;;;;;;-2.03;78.58;101033.75;4985367;28;20709;-60
2021/01/17 04:06:54;;;;;;;9.88;6.30;;;;;;;-2.15;80.37;101035.25;4985485;28;20046;-60
2021/01/17 04:09:21;;;;;;;11.30;6.88;;;;;;;-1.70;77.36;101038.09;4985328;28;20050;-58
2021/01/17 04:11:49;;;;;;;11.13;7.10;;;;;;;-2.42;80.39;101043.91;4985211;28;20517;-57
2021/01/17 04:14:16;;;;;;;9.65;6.57;;;;;;;-2.39;80.27;101042.53;4985296;28;20062;-58
2021/01/17 04:16:52;;;;;;;9.98;6.38;;;;;;;-2.32;80.50;101042.28;4969688;28;20143;-59
2021/01/17 04:19:19;;;;;;;12.07;7.30;;;;;;;-2.51;81.47;101043.13;4985341;28;20094;-61
2021/01/17 04:21:46;;;;;;;11.93;6.82;;;;;;;-2.71;81.60;101054.03;4983939;28;20050;-59
2021/01/17 04:24:13;;;;;;;10.75;7.07;;;;;;;-1.80;77.95;101059.06;4985325;28;20135;-58
2021/01/17 04:26:39;;;;;;;11.13;7.03;;;;;;;-2.12;78.05;101050.56;4984553;28;20573;-60
2021/01/17 04:29:06;;;;;;;12.95;7.00;;;;;;;-2.61;79.60;101061.56;4985404;28;20149;-57
2021/01/17 04:31:40;;;;;;;11.55;6.90;;;;;;;-2.13;78.12;101067.22;4985647;28;20101;-60
2021/01/17 04:34:08;;;;;;;11.30;6.68;;;;;;;-2.20;78.51;101056.59;4981735;28;20058;-60
2021/01/17 04:36:34;;;;;;;12.32;7.57;;;;;;;-2.43;79.73;101060.56;4986315;28;20057;-58
2021/01/17 04:39:02;;;;;;;11.98;6.70;;;;;;;-2.04;79.30;101062.09;4971153;28;20053;-56
2021/01/17 04:41:29;;;;;;;10.73;6.68;;;;;;;-1.86;78.39;101067.72;4986045;28;20133;-58
2021/01/17 04:43:57;;;;;;;11.93;6.45;;;;;;;-2.11;79.12;101062.34;4985745;28;20109;-59
2021/01/17 04:46:27;;;;;;;11.27;6.93;;;;;;;-2.14;79.00;101054.56;4985680;28;20116;-58
2021/01/17 04:48:59;;;;;;;10.70;6.72;;;;;;;-1.80;78.44;101056.56;4985531;28;20101;-57
2021/01/17 04:51:28;;;;;;;10.75;6.50;;;;;;;-1.89;78.23;101052.44;4985814;28;20112;-60
2021/01/17 04:53:57;;;;;;;10.85;6.30;;;;;;;-2.11;78.71;101055.72;4985509;28;20050;-60
2021/01/17 04:56:26;;;;;;;11.55;6.65;;;;;;;-2.35;80.34;101053.72;4985326;28;20503;-58
2021/01/17 04:59:11;;;;;;;10.85;6.57;;;;;;;-2.39;80.25;101056.69;4985702;28;20072;-60
2021/01/17 05:01:47;;;;;;;8.85;6.03;;;;;;;-2.37;81.15;101052.69;4985629;28;20105;-58
2021/01/17 05:04:19;;;;;;;10.52;6.20;;;;;;;-2.36;80.41;101061.94;4982187;28;20057;-57
2021/01/17 05:06:57;;;;;;;12.57;6.63;;;;;;;-2.00;79.38;101056.56;4983755;28;20054;-59
2021/01/17 05:09:29;;;;;;;10.90;7.07;;;;;;;-2.23;79.25;101053.81;4985537;28;20109;-57
2021/01/17 05:12:10;;;;;;;11.60;6.57;;;;;;;-2.18;80.34;101055.06;4984242;28;20117;-56
2021/01/17 05:15:04;;;;;;;10.60;6.53;;;;;;;-2.09;80.01;101063.34;4985105;28;20061;-58
2021/01/17 05:17:38;;;;;;;11.90;7.03;;;;;;;-2.06;79.06;101058.59;4980730;28;20050;-55
2021/01/17 05:20:06;;;;;;;9.77;6.32;;;;;;;-2.26;79.64;101054.47;4981059;28;20096;-59
2021/01/17 05:22:34;;;;;;;11.20;6.47;;;;;;;-2.38;80.45;101059.31;4985272;28;20042;-59
2021/01/17 05:25:03;;;;;;;10.88;6.22;;;;;;;-1.78;78.42;101065.84;4985277;28;20668;-60
2021/01/17 05:27:29;;;;;;;10.40;6.50;;;;;;;-2.22;78.83;101068.97;4984741;28;20137;-57
2021/01/17 05:29:56;;;;;;;11.15;6.85;;;;;;;-2.05;79.01;101075.41;4984302;28;20050;-57
2021/01/17 05:32:22;;;;;;;10.05;6.10;;;;;;;-1.88;79.00;101076.78;4984976;28;20096;-58
2021/01/17 05:34:51;;;;;;;9.60;5.93;;;;;;;-2.26;79.56;101077.03;4985191;28;20053;-56
2021/01/17 05:37:19;;;;;;;9.80;6.70;;;;;;;-2.43;81.15;101080.63;4984737;28;20399;-60
2021/01/17 05:40:04;;;;;;;11.07;6.32;;;;;;;-2.32;79.95;101077.38;4984422;28;20053;-57
2021/01/17 05:42:33;;;;;;;11.93;6.80;;;;;;;-1.74;78.17;101082.91;4984845;28;20054;-57
2021/01/17 05:45:11;;;;;;;12.00;6.60;;;;;;;-2.08;78.88;101072.63;4983871;28;20050;-57
2021/01/17 05:47:39;;;;;;;12.32;6.95;;;;;;;-2.19;79.67;101074.25;4984415;28;20109;-57
2021/01/17 05:50:11;;;;;;;10.38;7.20;;;;;;;-2.00;78.69;101079.16;4980233;28;20056;-60
2021/01/17 05:52:38;;;;;;;9.65;6.03;;;;;;;-2.10;78.72;101082.53;4984823;28;20043;-56
2021/01/17 05:55:06;;;;;;;9.80;6.60;;;;;;;-1.91;78.71;101084.91;4980139;28;20490;-60
2021/01/17 05:57:34;;;;;;;10.43;6.35;;;;;;;-1.86;78.63;101087.81;4984560;28;20156;-60
2021/01/17 06:00:03;;;;;;;11.45;6.82;;;;;;;-1.85;78.83;101082.94;4984638;28;21030;-59
2021/01/17 06:02:31;;;;;;;10.40;6.75;;;;;;;-2.44;81.50;101085.53;4984390;28;20050;-59
2021/01/17 06:05:00;;;;;;;11.00;6.70;;;;;;;-2.18;80.73;101082.66;4983502;28;20050;-57
2021/01/17 06:07:30;;;;;;;12.35;6.70;;;;;;;-2.20;81.29;101087.56;4984117;28;20455;-59
2021/01/17 06:10:06;;;;;;;12.15;6.40;;;;;;;-2.22;80.09;101095.69;4983448;28;20050;-59
2021/01/17 06:12:39;;;;;;;;;;;;;;;-2.52;81.47;101092.41;4984902;28;20565;-56
2021/01/17 06:15:11;;;;;;;11.73;7.00;;;;;;;-2.56;81.95;101086.25;4980087;28;20016;-60
2021/01/17 06:17:39;;;;;;;11.48;6.90;;;;;;;-2.59;82.31;101103.56;4983075;28;20042;-58
2021/01/17 06:20:10;;;;;;;9.93;6.40;;;;;;;-2.45;81.67;101096.28;4980072;28;20086;-60
2021/01/17 06:22:37;;;;;;;10.90;6.68;;;;;;;-1.75;78.52;101103.75;4983912;28;20050;-57
2021/01/17 06:25:05;;;;;;;11.15;6.53;;;;;;;-1.83;77.83;101100.63;4984861;28;20086;-54
2021/01/17 06:27:32;;;;;;;11.75;7.20;;;;;;;-2.28;79.67;101096.06;4983840;28;20093;-59
2021/01/17 06:29:59;;;;;;;14.10;7.10;;;;;;;-2.26;80.32;101098.72;4984167;28;20058;-58
2021/01/17 06:32:30;;;;;;;13.82;7.38;;;;;;;-2.44;81.53;101098.06;4984056;28;20164;-60
2021/01/17 06:34:58;;;;;;;11.82;7.00;;;;;;;-2.40;81.49;101090.94;4983233;28;20054;-59
2021/01/17 06:37:26;;;;;;;10.95;6.47;;;;;;;-1.83;79.18;101096.47;4983933;28;20104;-58
2021/01/17 06:39:55;;;;;;;13.43;7.53;;;;;;;-1.51;77.84;101094.81;4983751;28;20050;-59
2021/01/17 06:42:23;;;;;;;12.57;7.63;;;;;;;-1.52;78.51;101093.94;4983907;28;20054;-59
2021/01/17 06:44:51;;;;;;;10.60;6.97;;;;;;;-1.71;78.65;101090.66;4983312;28;20058;-59
2021/01/17 06:47:22;;;;;;;11.85;7.35;;;;;;;-1.61;77.55;101104.13;4984662;28;20066;-59
2021/01/17 06:49:50;;;;;;;12.43;7.13;;;;;;;-1.83;79.88;101104.00;4983177;28;20109;-60
2021/01/17 06:52:17;;;;;;;12.07;7.32;;;;;;;-1.96;79.98;101103.75;4983478;28;20071;-58
2021/01/17 06:54:51;;;;;;;13.05;7.30;;;;;;;-2.03;81.10;101105.63;4982151;28;20054;-52
2021/01/17 06:57:20;;;;;;;13.30;7.72;;;;;;;-1.98;80.78;101102.75;4983444;28;20072;-54
2021/01/17 06:59:48;;;;;;;11.68;6.95;;;;;;;-1.55;78.75;101107.09;4982905;28;20046;-54
2021/01/17 07:02:17;;;;;;;11.30;7.53;;;;;;;-2.10;80.88;101111.78;4982714;28;20054;-58
2021/01/17 07:04:55;;;;;;;11.55;7.63;;;;;;;-2.40;81.65;101107.63;4983143;28;20061;-56
2021/01/17 07:07:48;;;;;;;12.68;7.25;;;;;;;-2.29;81.67;101111.88;4983137;28;20605;-56
2021/01/17 07:10:20;;;;;;;11.15;7.25;;;;;;;-2.14;81.94;101115.66;4980113;28;20050;-56
2021/01/17 07:13:02;;;;;;;11.85;7.28;;;;;;;-1.50;79.09;101121.66;4981934;28;20495;-57
2021/01/17 07:15:47;;;;;;;13.15;7.32;;;;;;;-2.03;81.14;101121.56;4983461;28;20557;-53
2021/01/17 07:18:15;;;;;;;11.52;7.30;;;;;;;-1.82;80.84;101117.41;4974125;28;20392;-56
2021/01/17 07:20:47;;;;;;;12.90;7.72;;;;;;;-1.95;80.38;101114.66;4984583;28;20050;-54
2021/01/17 07:23:16;;;;;;;11.13;7.10;;;;;;;-1.82;80.44;101117.41;4984490;28;20511;-55
2021/01/17 07:25:45;;;;;;;12.05;6.95;;;;;;;-1.83;80.85;101128.22;4985319;28;20439;-49
2021/01/17 07:28:13;;;;;;;13.85;7.65;;;;;;;-1.58;79.92;101131.09;4982108;28;20050;-54
2021/01/17 07:30:46;;;;;;;12.65;7.88;;;;;;;-1.55;78.86;101134.72;4983107;28;20057;-56
2021/01/17 07:33:22;;;;;;;11.45;7.43;;;;;;;-1.14;78.34;101134.66;4986652;28;20050;-50
2021/01/17 07:35:49;;;;;;;14.43;8.13;;;;;;;-1.66;78.85;101134.63;4984938;28;20073;-58
2021/01/17 07:38:26;;;;;;;16.88;10.63;;;;;;;-1.21;77.45;101131.53;4985441;28;20112;-52
2021/01/17 07:40:58;;;;;;;20.60;10.68;;;;;;;-1.17;77.67;101136.91;4985970;28;20100;-51
2021/01/17 07:43:26;;;;;;;13.52;8.18;;;;;;;-1.62;79.81;101132.50;4985896;28;20062;-53
2021/01/17 07:45:55;;;;;;;12.30;7.85;;;;;;;-1.63;79.04;101134.84;4985755;28;20050;-56
2021/01/17 07:48:22;;;;;;;12.07;7.93;;;;;;;-1.51;80.07;101140.88;4985942;28;20058;-53
2021/01/17 07:50:50;;;;;;;12.52;7.78;;;;;;;-1.38;78.91;101138.59;4985801;28;20093;-53
2021/01/17 07:53:42;;;;;;;12.40;7.65;;;;;;;-1.18;77.11;101141.81;4985864;28;20109;-53
2021/01/17 07:56:24;;;;;;;12.57;7.65;;;;;;;-1.47;78.72;101142.88;4983062;28;20045;-51
2021/01/17 07:58:53;;;;;;;10.35;6.78;;;;;;;-1.24;77.79;101148.88;4983786;28;20058;-52
2021/01/17 08:01:35;;;;;;;11.07;7.13;;;;;;;-1.10;77.18;101150.84;4980177;28;20047;-49
2021/01/17 08:04:05;;;;;;;12.65;7.22;;;;;;;-1.05;76.98;101150.47;4985416;28;20418;-52
2021/01/17 08:06:34;;;;;;;13.93;7.15;;;;;;;-1.47;78.55;101149.56;4985361;28;20049;-51
2021/01/17 08:09:07;;;;;;;11.98;7.85;;;;;;;-1.62;80.12;101149.16;4986152;28;20145;-54
2021/01/17 08:11:42;;;;;;;12.97;7.73;;;;;;;-1.76;81.10;101148.03;4984629;28;20038;-56
2021/01/17 08:14:40;;;;;;;9.75;5.82;;;;;;;-1.31;80.13;101153.41;4981630;28;20645;-53
2021/01/17 08:17:23;;;;;;;16.35;8.57;;;;;;;-1.21;78.83;101154.13;4980844;28;20135;-52
2021/01/17 08:19:53;;;;;;;12.45;8.02;;;;;;;-1.56;79.70;101153.06;4984776;28;20276;-52
2021/01/17 08:22:25;;;;;;;13.32;7.93;;;;;;;-1.43;79.43;101154.03;4985482;28;20054;-55
2021/01/17 08:25:05;;;;;;;15.50;8.00;;;;;;;-0.81;76.88;101158.16;4984844;28;20102;-52
2021/01/17 08:27:37;;;;;;;12.88;8.18;;;;;;;-1.77;80.87;101157.97;4985205;28;20474;-55
2021/01/17 08:30:18;;;;;;;13.93;8.25;;;;;;;-1.50;79.08;101157.69;4981277;28;20105;-52
2021/01/17 08:32:52;;;;;;;16.48;9.63;;;;;;;-1.46;79.96;101167.25;4981922;28;20101;-51
2021/01/17 08:35:22;;;;;;;13.63;9.05;;;;;;;-1.55;79.97;101162.34;4984171;28;20541;-49
2021/01/17 08:38:08;;;;;;;15.07;9.25;;;;;;;-1.71;80.47;101161.88;4984139;28;20046;-50
2021/01/17 08:40:34;;;;;;;16.25;9.48;;;;;;;-1.76;80.81;101172.25;4985017;28;20186;-53
2021/01/17 08:43:03;;;;;;;14.80;9.40;;;;;;;-1.74;82.06;101169.13;4984985;28;20050;-52
2021/01/17 08:45:29;;;;;;;14.77;9.27;;;;;;;-1.84;82.21;101165.00;4983511;28;20042;-54
2021/01/17 08:48:01;;;;;;;14.95;9.45;;;;;;;-1.68;83.01;101167.13;4982426;28;20054;-56
2021/01/17 08:50:28;;;;;;;18.23;10.32;;;;;;;-1.05;78.15;101180.63;4983275;28;20077;-56
2021/01/17 08:53:13;;;;;;;16.70;9.90;;;;;;;-1.63;81.50;101177.53;4983150;28;20574;-47
2021/01/17 08:55:44;;;;;;;15.98;10.38;;;;;;;-1.68;81.66;101177.16;4984240;28;20054;-52
2021/01/17 08:58:37;;;;;;;14.63;9.25;;;;;;;-1.01;79.25;101184.25;4983480;28;20112;-48
2021/01/17 09:01:05;;;;;;;12.73;8.55;;;;;;;-1.26;80.00;101186.41;4984344;28;20129;-48
2021/01/17 09:03:47;;;;;;;16.10;8.73;;;;;;;-1.03;78.75;101188.25;4984661;28;20057;-50
2021/01/17 09:06:13;;;;;;;14.75;9.63;;;;;;;-0.64;76.98;101192.19;4981409;28;20058;-53
2021/01/17 09:08:49;;;;;;;13.52;9.35;;;;;;;-1.10;78.01;101189.44;4983047;28;20620;-50
2021/01/17 09:11:28;;;;;;;13.07;8.68;;;;;;;-0.87;78.25;101193.78;4984783;28;20117;-55
2021/01/17 09:14:14;;;;;;;13.98;8.23;;;;;;;-1.04;78.24;101194.94;4985049;28;20042;-48
2021/01/17 09:16:45;;;;;;;;;;;;;;;-1.11;80.17;101202.75;4983893;28;20463;-52
2021/01/17 09:19:11;;;;;;;12.95;8.98;;;;;;;-0.55;77.96;101200.44;4983830;28;19921;-53
2021/01/17 09:21:39;;;;;;;14.45;9.07;;;;;;;-1.04;78.66;101207.50;4984063;28;20058;-51
2021/01/17 09:24:18;;;;;;;14.15;8.75;;;;;;;-1.11;78.93;101207.78;4978886;28;20054;-56
2021/01/17 09:26:48;;;;;;;13.00;9.00;;;;;;;-1.07;80.22;101203.84;4982801;28;20046;-54
2021/01/17 09:29:34;;;;;;;17.45;10.60;;;;;;;-0.40;77.66;101199.13;4984447;28;20085;-56
2021/01/17 09:32:05;;;;;;;14.55;8.50;;;;;;;-1.17;79.17;101201.38;4984419;28;20474;-50
2021/01/17 09:34:34;;;;;;;15.52;8.40;;;;;;;-1.13;79.55;101203.38;4984203;28;20050;-52
2021/01/17 09:37:02;;;;;;;12.98;8.65;;;;;;;-0.96;79.57;101204.72;4984093;28;20105;-55
2021/01/17 09:39:37;;;;;;;15.13;8.80;;;;;;;-0.48;78.34;101206.81;4984675;28;20050;-51
2021/01/17 09:42:06;;;;;;;14.27;8.35;;;;;;;-0.33;77.38;101208.88;4984966;28;20054;-54
2021/01/17 09:44:36;;;;;;;11.88;8.05;;;;;;;-0.87;78.39;101210.50;4984821;28;20046;-52
2021/01/17 09:47:12;;;;;;;14.05;8.90;;;;;;;-1.05;79.68;101209.91;4984780;28;20050;-53
2021/01/17 09:49:39;;;;;;;12.25;8.05;;;;;;;-0.53;79.08;101221.56;4984500;28;20042;-55
2021/01/17 09:52:17;;;;;;;12.48;7.57;;;;;;;-0.31;77.58;101225.00;4979977;28;20396;-55
2021/01/17 09:54:46;;;;;;;12.43;7.90;;;;;;;-0.06;78.17;101229.38;4983354;28;20101;-51
2021/01/17 09:57:14;;;;;;;12.93;7.82;;;;;;;-0.33;77.57;101223.09;4983963;28;20069;-56
2021/01/17 09:59:40;;;;;;;10.73;7.38;;;;;;;-0.42;77.65;101227.41;4983514;28;20073;-53
2021/01/17 10:02:09;;;;;;;10.18;7.32;;;;;;;-0.54;80.31;101223.19;4984518;28;20057;-54
2021/01/17 10:04:37;;;;;;;12.88;7.90;;;;;;;-0.37;77.87;101224.53;4984613;28;20406;-55
2021/01/17 10:07:03;;;;;;;12.43;7.32;;;;;;;-0.95;79.77;101231.63;4984440;28;20148;-55
2021/01/17 10:09:30;;;;;;;13.23;8.13;;;;;;;-0.80;80.27;101230.31;4984213;28;20046;-51
2021/01/17 10:12:01;;;;;;;12.10;7.85;;;;;;;0.06;76.45;101227.81;4983340;28;20054;-51
2021/01/17 10:14:32;;;;;;;12.20;6.70;;;;;;;0.67;74.56;101227.34;4982591;28;20112;-53
2021/01/17 10:17:02;;;;;;;11.98;7.32;;;;;;;1.05;71.38;101229.25;4982056;28;20069;-52
2021/01/17 10:19:31;;;;;;;13.43;7.38;;;;;;;0.77;74.16;101231.44;4983968;28;20074;-49
2021/01/17 10:21:59;;;;;;;13.73;7.88;;;;;;;0.46;75.41;101235.84;4983442;28;20054;-51
2021/01/17 10:24:29;;;;;;;13.95;7.93;;;;;;;0.48;75.08;101234.31;4983778;28;20058;-51
2021/01/17 10:26:57;;;;;;;10.18;7.07;;;;;;;0.66;74.37;101239.84;4982458;28;20062;-53
2021/01/17 10:29:27;;;;;;;10.77;7.47;;;;;;;0.87;73.17;101240.53;4984000;28;20054;-54
2021/01/17 10:32:00;;;;;;;11.98;7.57;;;;;;;0.40;75.40;101241.31;4984152;28;20054;-51
2021/01/17 10:34:33;;;;;;;12.93;7.38;;;;;;;-0.01;76.83;101245.72;4984131;28;20145;-52
2021/01/17 10:37:05;;;;;;;11.57;7.35;;;;;;;0.92;72.84;101250.19;4982964;28;20054;-50
2021/01/17 10:39:33;;;;;;;15.05;7.15;;;;;;;1.00;73.29;101250.75;4983420;28;20054;-53
2021/01/17 10:42:13;;;;;;;11.43;6.60;;;;;;;0.59;73.20;101257.78;4984070;28;20050;-50
2021/01/17 10:45:05;;;;;;;13.50;7.45;;;;;;;0.65;73.02;101264.19;4982541;28;20038;-55
2021/01/17 10:47:41;;;;;;;11.45;7.10;;;;;;;0.39;74.92;101263.88;4983541;28;20107;-56
2021/01/17 10:50:11;;;;;;;13.55;7.53;;;;;;;1.05;71.81;101251.09;4979640;28;20105;-54
2021/01/17 10:52:54;;;;;;;10.43;7.07;;;;;;;0.87;73.18;101256.53;4983748;28;20135;-52
2021/01/17 10:55:22;;;;;;;11.82;7.68;;;;;;;0.66;74.23;101260.88;4981156;28;20042;-53
2021/01/17 10:57:52;;;;;;;15.00;8.68;;;;;;;0.75;74.05;101256.53;4982963;28;20116;-48
2021/01/17 11:00:18;;;;;;;12.23;7.30;;;;;;;0.47;75.83;101262.81;4983458;28;20202;-55
2021/01/17 11:02:59;;;;;;;13.13;7.85;;;;;;;0.74;74.23;101271.56;4983745;28;20077;-58
2021/01/17 11:05:27;;;;;;;13.15;7.45;;;;;;;-0.10;77.67;101270.19;4986903;28;20081;-54
2021/01/17 11:07:54;;;;;;;13.65;7.75;;;;;;;0.57;74.98;101272.81;4987894;28;20046;-54
2021/01/17 11:10:21;;;;;;;14.82;9.05;;;;;;;0.85;72.60;101269.81;4987860;28;20160;-54
2021/01/17 11:12:47;;;;;;;14.95;7.75;;;;;;;1.38;70.52;101268.66;4986914;28;20046;-55
2021/01/17 11:15:16;;;;;;;14.27;7.65;;;;;;;1.03;72.03;101271.16;4987788;28;20054;-58
2021/01/17 11:17:53;;;;;;;15.40;8.48;;;;;;;0.67;74.96;101267.69;4987153;28;20133;-48
2021/01/17 11:20:28;;;;;;;14.98;8.25;;;;;;;1.27;70.93;101269.53;4987592;28;20481;-52
2021/01/17 11:23:04;;;;;;;17.15;9.75;;;;;;;0.31;75.35;101264.91;4987331;28;20042;-49
2021/01/17 11:25:31;;;;;;;15.27;8.18;;;;;;;1.14;74.18;101270.28;4987416;28;20081;-56
2021/01/17 11:28:03;;;;;;;13.98;7.60;;;;;;;1.67;68.51;101262.28;4986256;28;20151;-51
2021/01/17 11:30:32;;;;;;;14.55;7.78;;;;;;;1.73;68.97;101267.75;4986964;28;20105;-57
2021/01/17 11:33:18;;;;;;;13.60;7.45;;;;;;;2.01;68.35;101266.38;4987415;28;20416;-54
2021/01/17 11:35:45;;;;;;;15.13;8.38;;;;;;;1.51;70.23;101261.19;4985921;28;20042;-56